sensor_id;sensor_type;location;lat;lon;timestamp;P1;durP1;ratioP1;P2;durP2;ratioP2
20593;SDS011;10455;48.732;10.266;2022-12-20T00:04:09;110.67;;;59.20;;
20593;SDS011;10455;48.732;10.266;2022-12-20T00:09:12;127.37;;;62.53;;
20593;SDS011;10455;48.732;10.266;2022-12-20T00:14:15;125.37;;;61.50;;
20593;SDS011;10455;48.732;10.266;2022-12-20T00:19:18;113.33;;;56.10;;
20593;SDS011;10455;48.732;10.266;2022-12-20T00:24:20;133.80;;;64.27;;
20593;SDS011;10455;48.732;10.266;2022-12-20T00:29:23;103.03;;;54.83;;
20593;SDS011;10455;48.732;10.266;2022-12-20T00:34:25;99.17;;;53.27;;
20593;SDS011;10455;48.732;10.266;2022-12-20T00:39:27;136.60;;;62.30;;
20593;SDS011;10455;48.732;10.266;2022-12-20T00:44:30;154.53;;;72.17;;
20593;SDS011;10455;48.732;10.266;2022-12-20T00:49:32;160.67;;;75.27;;
20593;SDS011;10455;48.732;10.266;2022-12-20T00:54:34;157.87;;;71.00;;
20593;SDS011;10455;48.732;10.266;2022-12-20T00:59:38;156.40;;;71.27;;
20593;SDS011;10455;48.732;10.266;2022-12-20T01:04:40;155.87;;;71.13;;
20593;SDS011;10455;48.732;10.266;2022-12-20T01:09:42;154.80;;;70.60;;
20593;SDS011;10455;48.732;10.266;2022-12-20T01:14:45;150.77;;;69.17;;
20593;SDS011;10455;48.732;10.266;2022-12-20T01:19:47;98.37;;;54.07;;
20593;SDS011;10455;48.732;10.266;2022-12-20T01:24:49;109.97;;;56.17;;
20593;SDS011;10455;48.732;10.266;2022-12-20T01:29:52;90.33;;;52.67;;
20593;SDS011;10455;48.732;10.266;2022-12-20T01:34:54;123.03;;;61.67;;
20593;SDS011;10455;48.732;10.266;2022-12-20T01:39:56;132.63;;;61.50;;
20593;SDS011;10455;48.732;10.266;2022-12-20T01:44:59;141.23;;;67.43;;
20593;SDS011;10455;48.732;10.266;2022-12-20T01:50:02;102.83;;;55.90;;
20593;SDS011;10455;48.732;10.266;2022-12-20T01:55:08;106.23;;;58.83;;
20593;SDS011;10455;48.732;10.266;2022-12-20T02:00:14;104.10;;;57.30;;
20593;SDS011;10455;48.732;10.266;2022-12-20T02:05:18;107.47;;;57.53;;
20593;SDS011;10455;48.732;10.266;2022-12-20T02:10:22;88.97;;;50.70;;
20593;SDS011;10455;48.732;10.266;2022-12-20T02:15:34;83.97;;;48.17;;
20593;SDS011;10455;48.732;10.266;2022-12-20T02:20:51;115.57;;;60.53;;
20593;SDS011;10455;48.732;10.266;2022-12-20T02:26:27;91.70;;;52.87;;
20593;SDS011;10455;48.732;10.266;2022-12-20T02:31:54;196.33;;;114.40;;
20593;SDS011;10455;48.732;10.266;2022-12-20T02:37:00;163.67;;;95.93;;
20593;SDS011;10455;48.732;10.266;2022-12-20T02:42:03;150.90;;;79.13;;
20593;SDS011;10455;48.732;10.266;2022-12-20T02:47:09;127.87;;;61.47;;
20593;SDS011;10455;48.732;10.266;2022-12-20T02:52:15;127.13;;;61.17;;
20593;SDS011;10455;48.732;10.266;2022-12-20T02:57:21;122.57;;;59.10;;
20593;SDS011;10455;48.732;10.266;2022-12-20T03:02:30;144.50;;;68.47;;
20593;SDS011;10455;48.732;10.266;2022-12-20T03:07:54;144.50;;;71.30;;
20593;SDS011;10455;48.732;10.266;2022-12-20T03:12:56;141.53;;;65.33;;
20593;SDS011;10455;48.732;10.266;2022-12-20T03:17:59;148.93;;;69.90;;
20593;SDS011;10455;48.732;10.266;2022-12-20T03:23:03;163.63;;;72.43;;
20593;SDS011;10455;48.732;10.266;2022-12-20T03:28:05;112.43;;;57.40;;
20593;SDS011;10455;48.732;10.266;2022-12-20T03:33:08;131.40;;;61.93;;
20593;SDS011;10455;48.732;10.266;2022-12-20T03:38:10;84.57;;;48.43;;
20593;SDS011;10455;48.732;10.266;2022-12-20T03:43:12;126.63;;;56.77;;
20593;SDS011;10455;48.732;10.266;2022-12-20T03:48:15;109.97;;;55.10;;
20593;SDS011;10455;48.732;10.266;2022-12-20T03:53:17;96.93;;;50.97;;
20593;SDS011;10455;48.732;10.266;2022-12-20T03:58:19;80.77;;;44.50;;
20593;SDS011;10455;48.732;10.266;2022-12-20T04:03:22;93.27;;;50.03;;
20593;SDS011;10455;48.732;10.266;2022-12-20T04:08:25;82.73;;;44.93;;
20593;SDS011;10455;48.732;10.266;2022-12-20T04:13:26;93.70;;;49.97;;
20593;SDS011;10455;48.732;10.266;2022-12-20T04:18:30;120.57;;;60.00;;
20593;SDS011;10455;48.732;10.266;2022-12-20T04:23:32;151.10;;;71.27;;
20593;SDS011;10455;48.732;10.266;2022-12-20T04:28:34;175.40;;;76.77;;
20593;SDS011;10455;48.732;10.266;2022-12-20T04:33:38;165.10;;;72.77;;
20593;SDS011;10455;48.732;10.266;2022-12-20T04:38:40;150.40;;;66.73;;
20593;SDS011;10455;48.732;10.266;2022-12-20T04:43:42;143.33;;;63.83;;
20593;SDS011;10455;48.732;10.266;2022-12-20T04:48:45;152.23;;;65.83;;
20593;SDS011;10455;48.732;10.266;2022-12-20T04:53:47;147.00;;;69.23;;
20593;SDS011;10455;48.732;10.266;2022-12-20T04:58:50;156.80;;;69.80;;
20593;SDS011;10455;48.732;10.266;2022-12-20T05:03:54;115.90;;;55.93;;
20593;SDS011;10455;48.732;10.266;2022-12-20T05:08:56;117.43;;;60.87;;
20593;SDS011;10455;48.732;10.266;2022-12-20T05:13:58;113.80;;;56.77;;
20593;SDS011;10455;48.732;10.266;2022-12-20T05:19:01;125.27;;;61.83;;
20593;SDS011;10455;48.732;10.266;2022-12-20T05:24:04;125.43;;;58.83;;
20593;SDS011;10455;48.732;10.266;2022-12-20T05:29:23;101.97;;;55.17;;
20593;SDS011;10455;48.732;10.266;2022-12-20T05:34:26;122.87;;;59.43;;
20593;SDS011;10455;48.732;10.266;2022-12-20T05:39:28;112.03;;;56.87;;
20593;SDS011;10455;48.732;10.266;2022-12-20T05:44:30;96.73;;;53.87;;
20593;SDS011;10455;48.732;10.266;2022-12-20T05:49:33;113.50;;;56.50;;
20593;SDS011;10455;48.732;10.266;2022-12-20T05:54:35;85.90;;;49.50;;
20593;SDS011;10455;48.732;10.266;2022-12-20T05:59:37;64.87;;;40.53;;
20593;SDS011;10455;48.732;10.266;2022-12-20T06:04:41;79.57;;;44.53;;
20593;SDS011;10455;48.732;10.266;2022-12-20T06:09:43;76.87;;;44.43;;
20593;SDS011;10455;48.732;10.266;2022-12-20T06:14:44;91.27;;;51.20;;
20593;SDS011;10455;48.732;10.266;2022-12-20T06:19:48;96.90;;;51.07;;
20593;SDS011;10455;48.732;10.266;2022-12-20T06:24:49;96.27;;;50.20;;
20593;SDS011;10455;48.732;10.266;2022-12-20T06:29:51;108.20;;;53.73;;
20593;SDS011;10455;48.732;10.266;2022-12-20T06:34:55;82.77;;;46.73;;
20593;SDS011;10455;48.732;10.266;2022-12-20T06:39:56;94.50;;;50.30;;
20593;SDS011;10455;48.732;10.266;2022-12-20T06:44:59;94.23;;;52.60;;
20593;SDS011;10455;48.732;10.266;2022-12-20T06:50:02;85.17;;;47.37;;
20593;SDS011;10455;48.732;10.266;2022-12-20T06:55:05;103.50;;;52.63;;
20593;SDS011;10455;48.732;10.266;2022-12-20T07:00:07;86.20;;;47.77;;
20593;SDS011;10455;48.732;10.266;2022-12-20T07:05:13;122.63;;;66.97;;
20593;SDS011;10455;48.732;10.266;2022-12-20T07:10:15;109.13;;;60.70;;
20593;SDS011;10455;48.732;10.266;2022-12-20T07:15:17;81.90;;;46.67;;
20593;SDS011;10455;48.732;10.266;2022-12-20T07:20:20;70.07;;;41.53;;
20593;SDS011;10455;48.732;10.266;2022-12-20T07:25:22;64.00;;;40.10;;
20593;SDS011;10455;48.732;10.266;2022-12-20T07:30:24;51.30;;;35.03;;
20593;SDS011;10455;48.732;10.266;2022-12-20T07:35:27;61.13;;;37.47;;
20593;SDS011;10455;48.732;10.266;2022-12-20T07:40:29;50.47;;;35.57;;
20593;SDS011;10455;48.732;10.266;2022-12-20T07:45:31;54.63;;;34.07;;
20593;SDS011;10455;48.732;10.266;2022-12-20T07:50:35;39.80;;;28.13;;
20593;SDS011;10455;48.732;10.266;2022-12-20T07:55:37;50.47;;;32.77;;
20593;SDS011;10455;48.732;10.266;2022-12-20T08:00:41;41.30;;;28.47;;
20593;SDS011;10455;48.732;10.266;2022-12-20T08:05:45;44.03;;;31.33;;
20593;SDS011;10455;48.732;10.266;2022-12-20T08:10:50;44.00;;;29.57;;
20593;SDS011;10455;48.732;10.266;2022-12-20T08:15:52;49.17;;;31.77;;
20593;SDS011;10455;48.732;10.266;2022-12-20T08:20:55;37.07;;;26.13;;
20593;SDS011;10455;48.732;10.266;2022-12-20T08:25:59;33.50;;;25.03;;
20593;SDS011;10455;48.732;10.266;2022-12-20T08:31:01;31.77;;;25.37;;
20593;SDS011;10455;48.732;10.266;2022-12-20T08:36:06;36.20;;;25.63;;
20593;SDS011;10455;48.732;10.266;2022-12-20T08:41:10;41.13;;;26.83;;
20593;SDS011;10455;48.732;10.266;2022-12-20T08:46:13;34.97;;;24.17;;
20593;SDS011;10455;48.732;10.266;2022-12-20T08:51:16;41.17;;;28.33;;
20593;SDS011;10455;48.732;10.266;2022-12-20T08:56:19;33.90;;;27.57;;
20593;SDS011;10455;48.732;10.266;2022-12-20T09:01:21;31.80;;;23.73;;
20593;SDS011;10455;48.732;10.266;2022-12-20T09:06:24;27.93;;;20.17;;
20593;SDS011;10455;48.732;10.266;2022-12-20T09:11:26;27.90;;;19.13;;
20593;SDS011;10455;48.732;10.266;2022-12-20T09:16:30;30.23;;;19.80;;
20593;SDS011;10455;48.732;10.266;2022-12-20T09:21:34;30.37;;;19.03;;
20593;SDS011;10455;48.732;10.266;2022-12-20T09:26:36;37.63;;;24.47;;
20593;SDS011;10455;48.732;10.266;2022-12-20T09:31:39;34.07;;;23.87;;
20593;SDS011;10455;48.732;10.266;2022-12-20T09:36:42;39.53;;;27.40;;
20593;SDS011;10455;48.732;10.266;2022-12-20T09:41:45;49.07;;;34.23;;
20593;SDS011;10455;48.732;10.266;2022-12-20T09:46:53;50.57;;;33.53;;
20593;SDS011;10455;48.732;10.266;2022-12-20T09:52:08;51.07;;;34.67;;
20593;SDS011;10455;48.732;10.266;2022-12-20T09:57:25;35.97;;;25.87;;
20593;SDS011;10455;48.732;10.266;2022-12-20T10:02:32;30.13;;;21.87;;
20593;SDS011;10455;48.732;10.266;2022-12-20T10:07:38;31.07;;;24.50;;
20593;SDS011;10455;48.732;10.266;2022-12-20T10:12:56;43.97;;;31.27;;
20593;SDS011;10455;48.732;10.266;2022-12-20T10:23:32;66.63;;;44.53;;
20593;SDS011;10455;48.732;10.266;2022-12-20T10:28:37;65.23;;;43.97;;
20593;SDS011;10455;48.732;10.266;2022-12-20T10:33:41;57.13;;;38.57;;
20593;SDS011;10455;48.732;10.266;2022-12-20T10:38:46;46.20;;;33.27;;
20593;SDS011;10455;48.732;10.266;2022-12-20T10:43:51;41.13;;;30.07;;
20593;SDS011;10455;48.732;10.266;2022-12-20T10:48:56;63.90;;;40.93;;
20593;SDS011;10455;48.732;10.266;2022-12-20T10:54:00;46.53;;;32.80;;
20593;SDS011;10455;48.732;10.266;2022-12-20T10:59:21;43.77;;;31.67;;
20593;SDS011;10455;48.732;10.266;2022-12-20T11:04:29;48.83;;;32.37;;
20593;SDS011;10455;48.732;10.266;2022-12-20T11:09:35;37.07;;;29.33;;
20593;SDS011;10455;48.732;10.266;2022-12-20T11:14:38;37.83;;;28.03;;
20593;SDS011;10455;48.732;10.266;2022-12-20T11:19:45;35.33;;;26.97;;
20593;SDS011;10455;48.732;10.266;2022-12-20T11:25:01;38.63;;;27.60;;
20593;SDS011;10455;48.732;10.266;2022-12-20T11:30:24;43.03;;;34.17;;
20593;SDS011;10455;48.732;10.266;2022-12-20T11:35:37;51.17;;;37.27;;
20593;SDS011;10455;48.732;10.266;2022-12-20T11:40:49;54.50;;;36.77;;
20593;SDS011;10455;48.732;10.266;2022-12-20T11:46:00;57.20;;;41.07;;
20593;SDS011;10455;48.732;10.266;2022-12-20T11:51:17;51.60;;;38.30;;
20593;SDS011;10455;48.732;10.266;2022-12-20T11:56:25;41.67;;;32.37;;
20593;SDS011;10455;48.732;10.266;2022-12-20T12:01:33;40.03;;;28.53;;
20593;SDS011;10455;48.732;10.266;2022-12-20T12:06:40;48.13;;;37.80;;
20593;SDS011;10455;48.732;10.266;2022-12-20T12:11:46;46.30;;;36.83;;
20593;SDS011;10455;48.732;10.266;2022-12-20T12:16:51;47.60;;;38.07;;
20593;SDS011;10455;48.732;10.266;2022-12-20T12:22:00;54.20;;;38.90;;
20593;SDS011;10455;48.732;10.266;2022-12-20T12:27:07;60.50;;;43.83;;
20593;SDS011;10455;48.732;10.266;2022-12-20T12:32:22;39.70;;;31.00;;
20593;SDS011;10455;48.732;10.266;2022-12-20T12:43:14;41.50;;;33.93;;
20593;SDS011;10455;48.732;10.266;2022-12-20T12:48:41;39.50;;;30.33;;
20593;SDS011;10455;48.732;10.266;2022-12-20T12:53:48;85.77;;;58.80;;
20593;SDS011;10455;48.732;10.266;2022-12-20T13:04:24;45.23;;;36.63;;
20593;SDS011;10455;48.732;10.266;2022-12-20T13:09:37;40.93;;;32.37;;
20593;SDS011;10455;48.732;10.266;2022-12-20T13:14:48;47.80;;;37.87;;
20593;SDS011;10455;48.732;10.266;2022-12-20T13:19:51;41.00;;;33.37;;
20593;SDS011;10455;48.732;10.266;2022-12-20T13:24:54;44.47;;;33.53;;
20593;SDS011;10455;48.732;10.266;2022-12-20T13:30:21;49.37;;;35.50;;
20593;SDS011;10455;48.732;10.266;2022-12-20T13:35:40;52.50;;;38.90;;
20593;SDS011;10455;48.732;10.266;2022-12-20T13:40:48;70.10;;;44.97;;
20593;SDS011;10455;48.732;10.266;2022-12-20T13:45:59;54.33;;;38.33;;
20593;SDS011;10455;48.732;10.266;2022-12-20T13:51:15;44.20;;;32.97;;
20593;SDS011;10455;48.732;10.266;2022-12-20T13:56:29;37.57;;;28.43;;
20593;SDS011;10455;48.732;10.266;2022-12-20T14:01:38;42.73;;;30.93;;
20593;SDS011;10455;48.732;10.266;2022-12-20T14:06:51;42.33;;;32.77;;
20593;SDS011;10455;48.732;10.266;2022-12-20T14:12:01;36.90;;;28.87;;
20593;SDS011;10455;48.732;10.266;2022-12-20T14:17:15;46.00;;;31.10;;
20593;SDS011;10455;48.732;10.266;2022-12-20T14:22:18;45.33;;;35.03;;
20593;SDS011;10455;48.732;10.266;2022-12-20T14:27:23;57.03;;;44.83;;
20593;SDS011;10455;48.732;10.266;2022-12-20T14:32:29;63.30;;;45.67;;
20593;SDS011;10455;48.732;10.266;2022-12-20T14:37:32;70.40;;;46.70;;
20593;SDS011;10455;48.732;10.266;2022-12-20T14:42:37;69.77;;;45.13;;
20593;SDS011;10455;48.732;10.266;2022-12-20T14:47:47;82.80;;;55.17;;
20593;SDS011;10455;48.732;10.266;2022-12-20T14:52:50;88.10;;;53.63;;
20593;SDS011;10455;48.732;10.266;2022-12-20T14:57:53;74.33;;;49.43;;
20593;SDS011;10455;48.732;10.266;2022-12-20T15:02:59;62.67;;;46.50;;
20593;SDS011;10455;48.732;10.266;2022-12-20T15:08:11;98.73;;;63.00;;
20593;SDS011;10455;48.732;10.266;2022-12-20T15:13:14;86.40;;;60.57;;
20593;SDS011;10455;48.732;10.266;2022-12-20T15:18:19;91.70;;;61.43;;
20593;SDS011;10455;48.732;10.266;2022-12-20T15:23:29;100.13;;;66.93;;
20593;SDS011;10455;48.732;10.266;2022-12-20T15:28:32;102.47;;;64.90;;
20593;SDS011;10455;48.732;10.266;2022-12-20T15:33:36;80.27;;;57.43;;
20593;SDS011;10455;48.732;10.266;2022-12-20T15:38:39;101.23;;;62.07;;
20593;SDS011;10455;48.732;10.266;2022-12-20T15:43:42;98.80;;;69.43;;
20593;SDS011;10455;48.732;10.266;2022-12-20T15:48:48;99.87;;;66.27;;
20593;SDS011;10455;48.732;10.266;2022-12-20T15:53:56;80.87;;;53.83;;
20593;SDS011;10455;48.732;10.266;2022-12-20T15:58:58;81.33;;;56.77;;
20593;SDS011;10455;48.732;10.266;2022-12-20T16:04:02;114.10;;;68.77;;
20593;SDS011;10455;48.732;10.266;2022-12-20T16:09:05;90.23;;;59.10;;
20593;SDS011;10455;48.732;10.266;2022-12-20T16:14:09;106.27;;;67.67;;
20593;SDS011;10455;48.732;10.266;2022-12-20T16:19:19;90.80;;;60.00;;
20593;SDS011;10455;48.732;10.266;2022-12-20T16:24:24;93.33;;;60.93;;
20593;SDS011;10455;48.732;10.266;2022-12-20T16:29:26;120.10;;;72.03;;
20593;SDS011;10455;48.732;10.266;2022-12-20T16:34:32;117.37;;;75.27;;
20593;SDS011;10455;48.732;10.266;2022-12-20T16:39:35;97.53;;;66.40;;
20593;SDS011;10455;48.732;10.266;2022-12-20T16:44:41;106.67;;;68.07;;
20593;SDS011;10455;48.732;10.266;2022-12-20T16:49:48;90.47;;;61.17;;
20593;SDS011;10455;48.732;10.266;2022-12-20T16:54:52;79.13;;;57.27;;
20593;SDS011;10455;48.732;10.266;2022-12-20T16:59:54;73.93;;;52.43;;
20593;SDS011;10455;48.732;10.266;2022-12-20T17:04:58;78.23;;;53.50;;
20593;SDS011;10455;48.732;10.266;2022-12-20T17:10:04;71.50;;;50.60;;
20593;SDS011;10455;48.732;10.266;2022-12-20T17:15:09;98.83;;;62.33;;
20593;SDS011;10455;48.732;10.266;2022-12-20T17:20:21;84.53;;;57.83;;
20593;SDS011;10455;48.732;10.266;2022-12-20T17:25:24;65.13;;;47.77;;
20593;SDS011;10455;48.732;10.266;2022-12-20T17:30:28;57.77;;;43.20;;
20593;SDS011;10455;48.732;10.266;2022-12-20T17:35:32;48.43;;;36.43;;
20593;SDS011;10455;48.732;10.266;2022-12-20T17:40:34;39.53;;;29.77;;
20593;SDS011;10455;48.732;10.266;2022-12-20T17:45:37;30.53;;;25.43;;
20593;SDS011;10455;48.732;10.266;2022-12-20T17:50:41;30.07;;;23.03;;
20593;SDS011;10455;48.732;10.266;2022-12-20T17:55:44;27.20;;;21.13;;
20593;SDS011;10455;48.732;10.266;2022-12-20T18:00:46;23.73;;;19.73;;
20593;SDS011;10455;48.732;10.266;2022-12-20T18:05:50;25.83;;;19.40;;
20593;SDS011;10455;48.732;10.266;2022-12-20T18:10:56;23.63;;;18.80;;
20593;SDS011;10455;48.732;10.266;2022-12-20T18:16:03;27.23;;;22.07;;
20593;SDS011;10455;48.732;10.266;2022-12-20T18:21:09;27.77;;;20.87;;
20593;SDS011;10455;48.732;10.266;2022-12-20T18:26:14;22.13;;;18.70;;
20593;SDS011;10455;48.732;10.266;2022-12-20T18:31:18;23.50;;;19.13;;
20593;SDS011;10455;48.732;10.266;2022-12-20T18:36:23;24.00;;;19.10;;
20593;SDS011;10455;48.732;10.266;2022-12-20T18:41:27;27.87;;;20.83;;
20593;SDS011;10455;48.732;10.266;2022-12-20T18:46:30;27.33;;;21.07;;
20593;SDS011;10455;48.732;10.266;2022-12-20T18:51:34;26.90;;;21.33;;
20593;SDS011;10455;48.732;10.266;2022-12-20T18:56:37;22.00;;;18.10;;
20593;SDS011;10455;48.732;10.266;2022-12-20T19:01:40;18.70;;;16.03;;
20593;SDS011;10455;48.732;10.266;2022-12-20T19:06:43;17.17;;;15.43;;
20593;SDS011;10455;48.732;10.266;2022-12-20T19:11:45;16.23;;;14.50;;
20593;SDS011;10455;48.732;10.266;2022-12-20T19:16:47;21.00;;;17.13;;
20593;SDS011;10455;48.732;10.266;2022-12-20T19:21:52;20.93;;;18.03;;
20593;SDS011;10455;48.732;10.266;2022-12-20T19:26:53;23.60;;;18.30;;
20593;SDS011;10455;48.732;10.266;2022-12-20T19:31:56;20.47;;;16.83;;
20593;SDS011;10455;48.732;10.266;2022-12-20T19:36:59;20.40;;;17.33;;
20593;SDS011;10455;48.732;10.266;2022-12-20T19:42:01;20.87;;;17.40;;
20593;SDS011;10455;48.732;10.266;2022-12-20T19:47:03;21.33;;;17.73;;
20593;SDS011;10455;48.732;10.266;2022-12-20T19:52:06;21.83;;;17.20;;
20593;SDS011;10455;48.732;10.266;2022-12-20T19:57:09;25.00;;;18.93;;
20593;SDS011;10455;48.732;10.266;2022-12-20T20:02:12;25.07;;;19.30;;
20593;SDS011;10455;48.732;10.266;2022-12-20T20:07:16;21.93;;;17.97;;
20593;SDS011;10455;48.732;10.266;2022-12-20T20:12:18;33.47;;;25.27;;
20593;SDS011;10455;48.732;10.266;2022-12-20T20:17:21;20.03;;;17.40;;
20593;SDS011;10455;48.732;10.266;2022-12-20T20:22:25;20.37;;;15.37;;
20593;SDS011;10455;48.732;10.266;2022-12-20T20:27:27;21.60;;;17.20;;
20593;SDS011;10455;48.732;10.266;2022-12-20T20:32:28;19.20;;;15.77;;
20593;SDS011;10455;48.732;10.266;2022-12-20T20:37:32;19.20;;;15.70;;
20593;SDS011;10455;48.732;10.266;2022-12-20T20:42:34;19.30;;;15.90;;
20593;SDS011;10455;48.732;10.266;2022-12-20T20:47:36;18.13;;;15.73;;
20593;SDS011;10455;48.732;10.266;2022-12-20T20:52:46;16.87;;;14.43;;
20593;SDS011;10455;48.732;10.266;2022-12-20T20:57:48;15.60;;;13.47;;
20593;SDS011;10455;48.732;10.266;2022-12-20T21:02:50;18.83;;;12.93;;
20593;SDS011;10455;48.732;10.266;2022-12-20T21:07:53;14.63;;;13.10;;
20593;SDS011;10455;48.732;10.266;2022-12-20T21:12:55;15.33;;;13.10;;
20593;SDS011;10455;48.732;10.266;2022-12-20T21:17:57;14.60;;;13.03;;
20593;SDS011;10455;48.732;10.266;2022-12-20T21:23:00;16.83;;;13.03;;
20593;SDS011;10455;48.732;10.266;2022-12-20T21:28:02;15.73;;;12.97;;
20593;SDS011;10455;48.732;10.266;2022-12-20T21:33:04;15.97;;;13.43;;
20593;SDS011;10455;48.732;10.266;2022-12-20T21:38:07;16.57;;;12.97;;
20593;SDS011;10455;48.732;10.266;2022-12-20T21:43:09;15.40;;;12.43;;
20593;SDS011;10455;48.732;10.266;2022-12-20T21:48:11;14.03;;;12.03;;
20593;SDS011;10455;48.732;10.266;2022-12-20T21:53:14;14.43;;;12.33;;
20593;SDS011;10455;48.732;10.266;2022-12-20T21:58:16;16.10;;;12.80;;
20593;SDS011;10455;48.732;10.266;2022-12-20T22:03:18;14.53;;;12.60;;
20593;SDS011;10455;48.732;10.266;2022-12-20T22:08:22;15.53;;;12.77;;
20593;SDS011;10455;48.732;10.266;2022-12-20T22:13:25;17.57;;;13.53;;
20593;SDS011;10455;48.732;10.266;2022-12-20T22:18:27;12.30;;;10.57;;
20593;SDS011;10455;48.732;10.266;2022-12-20T22:23:31;13.93;;;11.37;;
20593;SDS011;10455;48.732;10.266;2022-12-20T22:28:33;12.03;;;9.30;;
20593;SDS011;10455;48.732;10.266;2022-12-20T22:33:36;12.80;;;10.77;;
20593;SDS011;10455;48.732;10.266;2022-12-20T22:38:39;15.03;;;10.10;;
20593;SDS011;10455;48.732;10.266;2022-12-20T22:43:42;13.13;;;10.53;;
20593;SDS011;10455;48.732;10.266;2022-12-20T22:48:45;11.20;;;10.00;;
20593;SDS011;10455;48.732;10.266;2022-12-20T22:53:49;15.47;;;13.87;;
20593;SDS011;10455;48.732;10.266;2022-12-20T22:58:51;16.07;;;12.80;;
20593;SDS011;10455;48.732;10.266;2022-12-20T23:03:53;16.73;;;13.73;;
20593;SDS011;10455;48.732;10.266;2022-12-20T23:08:56;23.87;;;19.40;;
20593;SDS011;10455;48.732;10.266;2022-12-20T23:13:58;18.23;;;14.80;;
20593;SDS011;10455;48.732;10.266;2022-12-20T23:19:17;19.20;;;16.40;;
20593;SDS011;10455;48.732;10.266;2022-12-20T23:24:20;20.33;;;16.57;;
20593;SDS011;10455;48.732;10.266;2022-12-20T23:29:22;20.87;;;16.20;;
20593;SDS011;10455;48.732;10.266;2022-12-20T23:34:24;19.93;;;15.30;;
20593;SDS011;10455;48.732;10.266;2022-12-20T23:39:28;24.97;;;20.33;;
20593;SDS011;10455;48.732;10.266;2022-12-20T23:44:30;20.03;;;17.90;;
20593;SDS011;10455;48.732;10.266;2022-12-20T23:49:32;20.47;;;18.17;;
20593;SDS011;10455;48.732;10.266;2022-12-20T23:54:35;19.93;;;16.70;;
20593;SDS011;10455;48.732;10.266;2022-12-20T23:59:37;22.20;;;19.83;;
